Time;durP1;ratioP1;P1;durP2;ratioP2;P2;SDS_P1;SDS_P2;PMS_P1;PMS_P2;Temp;Humidity;BMP_temperature;BMP_pressure;BME280_temperature;BME280_humidity;BME280_pressure;Samples;Min_cycle;Max_cycle;Signal;HPM_P1;HPM_P2
2022/03/29 00:01:05;;;;;;;34.25;20.30;;;6.90;99.90;;;;;;5010997;28;20049;-86
2022/03/29 00:03:31;;;;;;;30.73;20.15;;;6.80;99.90;;;;;;4995054;28;20122;-85
2022/03/29 00:05:57;;;;;;;37.97;20.58;;;6.60;99.90;;;;;;5010539;28;20481;-86
2022/03/29 00:08:22;;;;;;;32.80;20.52;;;6.60;99.90;;;;;;4994568;28;20048;-86
2022/03/29 00:10:48;;;;;;;32.47;20.83;;;7.50;99.90;;;;;;5011086;28;20140;-85
2022/03/29 00:13:14;;;;;;;45.55;20.33;;;7.50;99.90;;;;;;4993519;28;20132;-85
2022/03/29 00:15:40;;;;;;;37.90;20.42;;;7.40;99.90;;;;;;5003312;28;20430;-85
2022/03/29 00:18:05;;;;;;;31.75;20.30;;;7.60;99.90;;;;;;4991447;28;20042;-85
2022/03/29 00:20:31;;;;;;;34.30;21.63;;;6.60;99.90;;;;;;4989965;28;20045;-85
2022/03/29 00:22:57;;;;;;;33.75;20.70;;;7.30;99.90;;;;;;4991817;28;20045;-85
2022/03/29 00:25:22;;;;;;;38.00;21.90;;;7.00;99.90;;;;;;4974440;28;20493;-85
2022/03/29 00:27:49;;;;;;;39.33;21.83;;;6.60;99.90;;;;;;4991499;28;20045;-85
2022/03/29 00:30:16;;;;;;;31.95;21.23;;;6.50;99.90;;;;;;4974089;28;20398;-85
2022/03/29 00:32:44;;;;;;;33.70;21.15;;;6.80;99.90;;;;;;4975066;28;20049;-85
2022/03/29 00:35:16;;;;;;;36.15;21.67;;;7.30;99.90;;;;;;4973385;28;20084;-84
2022/03/29 00:37:43;;;;;;;35.75;21.92;;;7.10;99.90;;;;;;4991750;28;20073;-85
2022/03/29 00:40:11;;;;;;;37.42;22.52;;;6.50;99.90;;;;;;4974153;28;20513;-85
2022/03/29 00:42:38;;;;;;;36.33;21.02;;;6.50;99.90;;;;;;4990726;28;20046;-85
2022/03/29 00:45:05;;;;;;;37.63;21.52;;;5.90;99.90;;;;;;4989868;28;20405;-85
2022/03/29 00:47:31;;;;;;;35.33;20.33;;;6.50;99.90;;;;;;4973665;28;20072;-85
2022/03/29 00:50:07;;;;;;;32.83;21.15;;;6.80;99.90;;;;;;4974560;28;20063;-85
2022/03/29 00:52:33;;;;;;;31.75;20.30;;;6.40;99.90;;;;;;4975013;28;20484;-85
2022/03/29 00:55:00;;;;;;;37.70;21.83;;;6.80;99.90;;;;;;4973593;28;20044;-86
2022/03/29 00:57:28;;;;;;;34.03;20.83;;;7.20;99.90;;;;;;4973036;28;20045;-85
2022/03/29 00:59:55;;;;;;;46.83;23.17;;;5.30;99.90;;;;;;4973717;28;20049;-85
2022/03/29 01:02:21;;;;;;;34.67;20.63;;;6.40;99.90;;;;;;4989283;28;20132;-86
2022/03/29 01:04:47;;;;;;;37.55;21.38;;;6.30;99.90;;;;;;4990749;28;20142;-86
2022/03/29 01:07:13;;;;;;;35.35;22.33;;;6.60;99.90;;;;;;4973498;28;20564;-85
2022/03/29 01:09:40;;;;;;;35.40;21.25;;;6.10;99.90;;;;;;4990025;28;20405;-85
2022/03/29 01:12:06;;;;;;;35.33;21.13;;;6.80;99.90;;;;;;4990395;28;20133;-85
2022/03/29 01:14:33;;;;;;;34.08;21.45;;;6.40;99.90;;;;;;4990148;28;20060;-85
2022/03/29 01:19:46;;;;;;;34.40;21.70;;;7.00;99.90;;;;;;4990447;28;20056;-85
2022/03/29 01:22:12;;;;;;;33.65;20.73;;;6.30;99.90;;;;;;4973840;28;20075;-85
2022/03/29 01:24:41;;;;;;;39.47;21.35;;;7.20;99.90;;;;;;4973727;28;20105;-85
2022/03/29 01:27:15;;;;;;;37.40;21.90;;;6.40;99.90;;;;;;4989899;28;20537;-86
2022/03/29 01:29:43;;;;;;;38.70;22.38;;;6.00;99.90;;;;;;4972829;28;20474;-85
2022/03/29 01:32:10;;;;;;;35.65;21.35;;;6.90;99.90;;;;;;4974167;28;20045;-86
2022/03/29 01:34:39;;;;;;;37.67;22.67;;;7.30;99.90;;;;;;4974819;28;20045;-86
2022/03/29 01:37:05;;;;;;;34.35;21.17;;;7.00;99.90;;;;;;4970485;28;20058;-86
2022/03/29 01:39:36;;;;;;;37.42;21.52;;;6.40;99.90;;;;;;4974112;28;20042;-86
2022/03/29 01:42:03;;;;;;;37.45;21.23;;;6.40;99.90;;;;;;4973870;28;20038;-86
2022/03/29 01:44:29;;;;;;;37.90;21.00;;;6.30;99.90;;;;;;4988693;28;20042;-86
2022/03/29 01:46:55;;;;;;;41.35;22.73;;;6.70;99.90;;;;;;4973549;28;20107;-86
2022/03/29 01:49:21;;;;;;;39.55;21.80;;;7.50;99.90;;;;;;4989577;28;20042;-86
2022/03/29 01:51:47;;;;;;;34.95;22.38;;;6.50;99.90;;;;;;4973476;28;20099;-86
2022/03/29 01:54:13;;;;;;;39.92;21.73;;;6.30;99.90;;;;;;4973977;28;20559;-86
2022/03/29 01:56:39;;;;;;;41.47;22.15;;;7.00;99.90;;;;;;4991122;28;20041;-85
2022/03/29 01:59:06;;;;;;;40.42;22.17;;;5.20;99.90;;;;;;4972348;28;20065;-86
2022/03/29 02:01:46;;;;;;;35.47;21.48;;;7.40;99.90;;;;;;4974759;28;20121;-85
2022/03/29 02:04:12;;;;;;;40.58;22.48;;;6.30;99.90;;;;;;4989469;28;20050;-85
2022/03/29 02:06:39;;;;;;;34.95;21.38;;;6.70;99.90;;;;;;4973317;28;20153;-86
2022/03/29 02:09:28;;;;;;;36.58;21.08;;;5.30;99.90;;;;;;4975746;28;20041;-86
2022/03/29 02:11:52;;;;;;;35.75;20.55;;;6.70;99.90;;;;;;4993345;28;20480;-86
2022/03/29 02:14:23;;;;;;;38.90;22.25;;;6.20;99.90;;;;;;4976410;28;20073;-85
2022/03/29 02:16:49;;;;;;;36.45;20.88;;;5.70;99.90;;;;;;4978043;28;20115;-85
2022/03/29 02:19:15;;;;;;;38.25;21.63;;;6.40;99.90;;;;;;4992446;28;20490;-85
2022/03/29 02:21:41;;;;;;;36.85;21.80;;;6.20;99.90;;;;;;4978370;28;20156;-85
2022/03/29 02:24:06;;;;;;;40.90;21.48;;;6.50;99.90;;;;;;4993913;28;20444;-85
2022/03/29 02:26:32;;;;;;;39.17;22.08;;;6.20;99.90;;;;;;4976418;28;20545;-85
2022/03/29 02:28:58;;;;;;;38.05;20.65;;;5.60;99.90;;;;;;4977077;28;20104;-85
2022/03/29 02:31:32;;;;;;;37.38;20.67;;;5.60;99.90;;;;;;4977333;28;20061;-85
2022/03/29 02:33:58;;;;;;;36.42;21.30;;;6.20;99.90;;;;;;4976926;28;20915;-85
2022/03/29 02:36:24;;;;;;;36.80;21.58;;;5.80;99.90;;;;;;4976273;28;20592;-85
2022/03/29 02:38:49;;;;;;;43.25;21.70;;;6.70;99.90;;;;;;4993045;28;20046;-84
2022/03/29 02:41:15;;;;;;;38.72;21.15;;;6.20;99.90;;;;;;4992346;28;20046;-85
2022/03/29 02:43:40;;;;;;;36.17;21.50;;;6.80;99.90;;;;;;4976145;28;20092;-85
2022/03/29 02:46:07;;;;;;;44.85;22.50;;;5.80;99.90;;;;;;4976566;28;20524;-85
2022/03/29 02:48:32;;;;;;;39.55;21.05;;;6.20;99.90;;;;;;4975907;28;20132;-85
2022/03/29 02:50:58;;;;;;;38.25;21.70;;;6.20;99.90;;;;;;4976852;28;20141;-85
2022/03/29 02:53:24;;;;;;;37.90;21.48;;;6.90;99.90;;;;;;4992934;28;20037;-84
2022/03/29 02:55:49;;;;;;;37.72;22.33;;;6.40;99.90;;;;;;4975534;28;20068;-84
2022/03/29 02:58:15;;;;;;;41.75;22.30;;;6.20;99.90;;;;;;4992703;28;20042;-85
2022/03/29 03:00:44;;;;;;;42.60;21.42;;;6.20;99.90;;;;;;4976124;28;20081;-84
2022/03/29 03:03:10;;;;;;;37.25;22.13;;;6.50;99.90;;;;;;4975438;28;20054;-84
2022/03/29 03:05:36;;;;;;;32.60;21.10;;;7.20;99.90;;;;;;4976156;28;20050;-88
2022/03/29 03:08:02;;;;;;;41.03;21.48;;;6.70;99.90;;;;;;4975442;28;20050;-84
2022/03/29 03:10:28;;;;;;;39.22;22.98;;;6.20;99.90;;;;;;4975952;28;20050;-85
2022/03/29 03:12:54;;;;;;;39.45;21.80;;;6.20;99.90;;;;;;4976435;28;20054;-86
2022/03/29 03:15:22;;;;;;;36.28;21.85;;;6.20;99.90;;;;;;4974708;28;20197;-86
2022/03/29 03:17:49;;;;;;;41.15;22.58;;;6.20;99.90;;;;;;4976319;28;20125;-86
2022/03/29 03:20:15;;;;;;;37.58;21.60;;;6.20;99.90;;;;;;4975114;28;20092;-86
2022/03/29 03:22:42;;;;;;;38.47;22.80;;;6.20;99.90;;;;;;4992525;28;20050;-86
2022/03/29 03:25:08;;;;;;;44.63;21.38;;;6.20;99.90;;;;;;4991766;28;20038;-86
2022/03/29 03:27:34;;;;;;;39.58;21.95;;;6.20;99.90;;;;;;4992969;28;20088;-85
2022/03/29 03:30:03;;;;;;;46.70;22.88;;;6.20;99.90;;;;;;4973934;28;20077;-86
2022/03/29 03:32:29;;;;;;;41.67;23.33;;;6.20;99.90;;;;;;4992110;28;20056;-86
2022/03/29 03:34:55;;;;;;;38.72;21.63;;;6.20;99.90;;;;;;4992179;28;20042;-86
2022/03/29 03:37:20;;;;;;;40.97;20.88;;;6.20;99.90;;;;;;4991631;28;20045;-86
2022/03/29 03:39:47;;;;;;;41.20;22.58;;;6.20;99.90;;;;;;4992198;28;20109;-86
2022/03/29 03:42:12;;;;;;;36.50;21.75;;;6.20;99.90;;;;;;4975378;28;20045;-86
2022/03/29 03:44:39;;;;;;;39.80;22.52;;;6.20;99.90;;;;;;4990640;28;20057;-86
2022/03/29 03:47:08;;;;;;;42.28;22.02;;;6.30;99.90;;;;;;4991565;28;20175;-87
2022/03/29 03:49:34;;;;;;;37.83;21.48;;;6.20;99.90;;;;;;4975864;28;20489;-86
2022/03/29 03:52:00;;;;;;;46.00;23.52;;;6.20;99.90;;;;;;4974684;28;20050;-86
2022/03/29 03:54:26;;;;;;;41.33;22.55;;;6.30;99.90;;;;;;4975609;28;20037;-86
2022/03/29 03:56:52;;;;;;;34.53;22.38;;;6.20;99.90;;;;;;4975807;28;20046;-85
2022/03/29 03:59:17;;;;;;;39.38;22.10;;;7.00;99.90;;;;;;4973721;28;20129;-86
2022/03/29 04:01:43;;;;;;;41.58;23.95;;;6.20;99.90;;;;;;4992002;28;20417;-85
2022/03/29 04:04:09;;;;;;;38.28;22.63;;;6.20;99.90;;;;;;4974525;28;20069;-85
2022/03/29 04:06:34;;;;;;;45.20;22.35;;;6.20;99.90;;;;;;4991331;28;20489;-85
2022/03/29 04:09:00;;;;;;;46.42;24.77;;;6.20;99.90;;;;;;4990997;28;20196;-84
2022/03/29 04:11:26;;;;;;;38.92;22.27;;;6.30;99.90;;;;;;4974175;28;20052;-85
2022/03/29 04:13:53;;;;;;;49.20;22.30;;;6.30;99.90;;;;;;4974366;28;20129;-84
2022/03/29 04:16:18;;;;;;;44.72;24.30;;;6.20;99.90;;;;;;4974768;28;20042;-87
2022/03/29 04:18:44;;;;;;;44.60;24.92;;;6.30;99.90;;;;;;4975505;28;20042;-86
2022/03/29 04:21:11;;;;;;;37.25;23.02;;;6.20;99.90;;;;;;4990647;28;20129;-85
2022/03/29 04:23:37;;;;;;;39.88;23.52;;;7.20;99.90;;;;;;4974537;28;20125;-84
2022/03/29 04:26:04;;;;;;;51.75;23.60;;;6.20;99.90;;;;;;4974412;28;20081;-85
2022/03/29 04:28:31;;;;;;;41.83;23.50;;;7.10;99.90;;;;;;4974560;28;20046;-85
2022/03/29 04:30:59;;;;;;;40.53;22.88;;;6.80;99.90;;;;;;4974375;28;20061;-86
2022/03/29 04:33:25;;;;;;;43.47;22.48;;;6.20;99.90;;;;;;4973652;28;20104;-84
2022/03/29 04:35:51;;;;;;;44.40;23.55;;;6.20;99.90;;;;;;4990876;28;20049;-85
2022/03/29 04:38:17;;;;;;;40.95;23.05;;;6.20;99.90;;;;;;4974685;28;20157;-85
2022/03/29 04:40:43;;;;;;;46.45;24.88;;;6.50;99.90;;;;;;4973612;28;20177;-85
2022/03/29 04:43:09;;;;;;;50.63;25.23;;;6.20;99.90;;;;;;4974755;28;20077;-85
2022/03/29 04:45:34;;;;;;;46.85;25.75;;;6.20;99.90;;;;;;4973407;28;20046;-85
2022/03/29 04:48:00;;;;;;;47.72;25.48;;;6.40;99.90;;;;;;4990788;28;20081;-84
2022/03/29 04:50:26;;;;;;;50.38;25.60;;;6.20;99.90;;;;;;4974617;28;20041;-86
2022/03/29 04:52:52;;;;;;;42.65;24.92;;;6.20;99.90;;;;;;4974750;28;20045;-84
2022/03/29 04:55:18;;;;;;;47.20;25.17;;;6.60;99.90;;;;;;5011847;28;20040;-85
2022/03/29 04:57:47;;;;;;;45.67;24.80;;;6.30;99.90;;;;;;5013525;28;20412;-85
2022/03/29 05:00:14;;;;;;;43.97;25.90;;;6.30;99.90;;;;;;5011838;28;20396;-85
2022/03/29 05:02:41;;;;;;;48.97;25.73;;;6.30;99.90;;;;;;5009469;28;20045;-85
2022/03/29 05:05:07;;;;;;;48.67;25.30;;;6.30;99.90;;;;;;4990722;28;20058;-85
2022/03/29 05:07:33;;;;;;;53.47;26.15;;;6.30;99.90;;;;;;5012997;28;20099;-85
2022/03/29 05:09:59;;;;;;;49.33;26.65;;;6.30;99.90;;;;;;5019497;28;20069;-84
2022/03/29 05:12:25;;;;;;;44.83;26.10;;;6.30;99.90;;;;;;4993649;28;20480;-85
2022/03/29 05:14:51;;;;;;;50.30;28.15;;;6.30;99.90;;;;;;5008340;28;20165;-85
2022/03/29 05:17:17;;;;;;;48.85;27.20;;;6.30;99.90;;;;;;4993546;28;20041;-85
2022/03/29 05:19:42;;;;;;;50.40;26.98;;;6.30;99.90;;;;;;5014765;28;20091;-85
2022/03/29 05:22:08;;;;;;;49.45;26.23;;;6.30;99.90;;;;;;5016988;28;20111;-85
2022/03/29 05:24:34;;;;;;;43.10;26.80;;;6.40;99.90;;;;;;5010097;28;20054;-84
2022/03/29 05:26:59;;;;;;;47.83;28.30;;;7.30;99.90;;;;;;5012404;28;20057;-88
2022/03/29 05:29:27;;;;;;;52.25;27.85;;;6.30;99.90;;;;;;4992244;28;20045;-85
2022/03/29 05:31:53;;;;;;;52.47;26.60;;;6.70;99.90;;;;;;4986072;28;20111;-85
2022/03/29 05:34:19;;;;;;;42.67;25.85;;;6.30;99.90;;;;;;5009203;28;20624;-85
2022/03/29 05:36:46;;;;;;;52.70;27.88;;;6.30;99.90;;;;;;4993037;28;20454;-85
2022/03/29 05:39:13;;;;;;;47.90;27.38;;;6.40;99.90;;;;;;4992731;28;20409;-85
2022/03/29 05:41:40;;;;;;;51.17;28.25;;;6.50;99.90;;;;;;5010059;28;20050;-85
2022/03/29 05:44:06;;;;;;;44.60;27.20;;;6.40;99.90;;;;;;4989758;28;20144;-85
2022/03/29 05:49:32;;;;;;;51.17;28.15;;;6.40;99.90;;;;;;5032860;28;20122;-84
2022/03/29 05:51:57;;;;;;;48.28;26.48;;;6.40;99.90;;;;;;5033033;28;20489;-84
2022/03/29 05:54:23;;;;;;;56.15;26.92;;;6.40;99.90;;;;;;5033392;28;20565;-84
2022/03/29 05:56:49;;;;;;;46.00;26.35;;;6.40;99.90;;;;;;5016237;28;20041;-85
2022/03/29 05:59:15;;;;;;;46.88;25.90;;;6.40;99.90;;;;;;5015305;28;20051;-84
2022/03/29 06:01:41;;;;;;;48.92;27.85;;;6.50;99.90;;;;;;5033318;28;20053;-84
2022/03/29 06:04:07;;;;;;;53.58;27.48;;;6.50;99.90;;;;;;5031753;28;20492;-84
2022/03/29 06:06:34;;;;;;;54.65;28.38;;;6.50;99.90;;;;;;5016941;28;20091;-84
2022/03/29 06:09:00;;;;;;;45.55;28.65;;;6.50;99.90;;;;;;5032597;28;20484;-85
2022/03/29 06:11:26;;;;;;;47.05;28.83;;;6.70;99.90;;;;;;5032365;28;20120;-85
2022/03/29 06:13:51;;;;;;;51.85;27.70;;;6.50;99.90;;;;;;5001098;28;20421;-84
2022/03/29 06:16:17;;;;;;;50.58;29.55;;;7.10;99.90;;;;;;4996841;28;20503;-84
2022/03/29 06:18:43;;;;;;;50.65;29.48;;;6.60;99.90;;;;;;4995646;28;20038;-84
2022/03/29 06:21:09;;;;;;;55.33;29.55;;;6.60;99.90;;;;;;4995779;28;20045;-84
2022/03/29 06:23:35;;;;;;;48.45;28.17;;;6.60;99.90;;;;;;4997394;28;20049;-84
2022/03/29 06:26:01;;;;;;;50.88;27.85;;;6.60;99.90;;;;;;5017023;28;20045;-84
2022/03/29 06:28:27;;;;;;;49.60;28.30;;;7.30;99.90;;;;;;5002728;28;20094;-84
2022/03/29 06:30:52;;;;;;;48.47;27.13;;;7.50;99.90;;;;;;5000381;28;20042;-84
2022/03/29 06:33:19;;;;;;;53.38;26.65;;;6.70;99.90;;;;;;5000253;28;20076;-84
2022/03/29 06:35:45;;;;;;;60.70;28.23;;;6.70;99.90;;;;;;5029585;28;20052;-87
2022/03/29 06:38:10;;;;;;;48.22;27.25;;;6.70;99.90;;;;;;5015202;28;20459;-86
2022/03/29 06:40:36;;;;;;;48.85;29.08;;;6.70;99.90;;;;;;5015740;28;20059;-86
2022/03/29 06:43:02;;;;;;;53.13;29.00;;;6.70;99.90;;;;;;5032660;28;20382;-85
2022/03/29 06:45:28;;;;;;;55.25;27.85;;;6.90;99.90;;;;;;5014835;28;20036;-86
2022/03/29 06:47:55;;;;;;;50.67;27.33;;;6.80;99.90;;;;;;5015124;28;20055;-85
2022/03/29 06:50:21;;;;;;;56.75;27.92;;;6.80;99.90;;;;;;5006176;28;20034;-85
2022/03/29 06:52:47;;;;;;;51.22;28.85;;;6.80;99.90;;;;;;5010855;28;20045;-85
2022/03/29 06:55:15;;;;;;;48.67;26.48;;;6.80;99.90;;;;;;4990176;28;20048;-85
2022/03/29 06:57:41;;;;;;;55.70;26.92;;;6.80;99.90;;;;;;5008883;28;20068;-86
2022/03/29 07:00:09;;;;;;;49.03;26.35;;;6.80;99.90;;;;;;4983748;28;20565;-85
2022/03/29 07:02:36;;;;;;;49.80;26.98;;;6.80;99.90;;;;;;5002899;28;20037;-85
2022/03/29 07:05:02;;;;;;;45.47;26.17;;;6.80;99.90;;;;;;4999803;28;20609;-85
2022/03/29 07:07:28;;;;;;;42.13;23.27;;;6.90;99.90;;;;;;4997091;28;20057;-85
2022/03/29 07:12:47;;;;;;;44.58;22.73;;;6.90;99.90;;;;;;4997741;28;20119;-85
2022/03/29 07:15:13;;;;;;;43.13;21.88;;;7.00;99.90;;;;;;4982147;28;20044;-84
2022/03/29 07:17:39;;;;;;;42.78;22.15;;;7.00;99.90;;;;;;4999922;28;20049;-84
2022/03/29 07:20:05;;;;;;;46.35;23.23;;;7.00;99.90;;;;;;4998865;28;20037;-85
2022/03/29 07:22:30;;;;;;;42.72;23.08;;;7.10;99.90;;;;;;4983906;28;20132;-84
2022/03/29 07:24:56;;;;;;;58.28;24.75;;;7.20;99.90;;;;;;4995439;28;20136;-84
2022/03/29 07:27:22;;;;;;;41.47;23.60;;;7.30;99.90;;;;;;4999401;28;20037;-84
2022/03/29 07:29:49;;;;;;;49.33;23.88;;;7.30;99.90;;;;;;4994378;28;20471;-83
2022/03/29 07:32:15;;;;;;;42.10;23.05;;;7.50;99.90;;;;;;4986030;28;20134;-83
2022/03/29 07:34:41;;;;;;;44.65;25.40;;;7.90;99.90;;;;;;5007532;28;20080;-83
2022/03/29 07:37:07;;;;;;;45.22;23.35;;;7.60;99.90;;;;;;4998831;28;20485;-82
2022/03/29 07:39:33;;;;;;;40.00;23.20;;;7.70;99.90;;;;;;4976387;28;20052;-83
2022/03/29 07:41:59;;;;;;;45.15;20.83;;;8.00;99.90;;;;;;4996920;28;20085;-83
2022/03/29 07:44:25;;;;;;;33.65;17.88;;;7.80;99.90;;;;;;4998165;28;20077;-83
2022/03/29 07:46:51;;;;;;;43.85;19.25;;;8.30;99.90;;;;;;4974946;28;20045;-83
2022/03/29 07:49:16;;;;;;;40.30;20.13;;;7.40;99.90;;;;;;4983169;28;20088;-83
2022/03/29 07:51:42;;;;;;;36.95;20.67;;;8.80;99.90;;;;;;4995085;28;20459;-83
2022/03/29 07:54:08;;;;;;;37.55;21.10;;;8.20;99.90;;;;;;4993145;28;21122;-83
2022/03/29 07:56:33;;;;;;;33.00;20.17;;;9.10;99.90;;;;;;4982145;28;20041;-83
2022/03/29 07:58:59;;;;;;;50.63;21.13;;;8.70;99.90;;;;;;5003217;28;20045;-83
2022/03/29 08:01:25;;;;;;;39.10;19.17;;;8.10;99.90;;;;;;4986461;28;20497;-82
2022/03/29 08:03:51;;;;;;;47.75;20.13;;;8.40;99.90;;;;;;4985184;28;20488;-82
2022/03/29 08:06:17;;;;;;;48.97;20.33;;;8.60;99.90;;;;;;4982890;28;20057;-82
2022/03/29 08:08:43;;;;;;;42.60;20.00;;;8.30;99.90;;;;;;4975615;28;20042;-83
2022/03/29 08:11:09;;;;;;;37.40;20.58;;;8.70;99.90;;;;;;4994591;28;20072;-83
2022/03/29 08:13:35;;;;;;;40.15;20.30;;;8.50;99.90;;;;;;4980458;28;20046;-83
2022/03/29 08:16:02;;;;;;;34.92;20.40;;;8.00;99.90;;;;;;5013309;28;20492;-83
2022/03/29 08:18:29;;;;;;;38.53;19.40;;;8.00;99.90;;;;;;5030500;28;20118;-83
2022/03/29 08:20:55;;;;;;;50.45;21.58;;;8.00;99.90;;;;;;5013708;28;20166;-83
2022/03/29 08:23:20;;;;;;;40.03;21.88;;;7.90;99.90;;;;;;5014100;28;20150;-83
2022/03/29 08:25:46;;;;;;;43.72;21.33;;;7.90;99.90;;;;;;5013013;28;20045;-82
2022/03/29 08:28:13;;;;;;;41.20;20.08;;;7.90;99.90;;;;;;5013589;28;20068;-83
2022/03/29 08:30:40;;;;;;;48.33;17.85;;;7.90;99.90;;;;;;5013422;28;20386;-82
2022/03/29 08:33:06;;;;;;;40.45;16.30;;;8.20;99.90;;;;;;5002334;28;20504;-82
2022/03/29 08:35:33;;;;;;;35.00;15.60;;;8.00;99.90;;;;;;4984943;28;20049;-83
2022/03/29 08:37:59;;;;;;;36.90;16.65;;;8.50;99.90;;;;;;5010502;28;20049;-82
2022/03/29 08:40:26;;;;;;;33.40;15.82;;;8.10;99.90;;;;;;4993272;28;20053;-82
2022/03/29 08:42:55;;;;;;;37.92;13.73;;;8.30;99.90;;;;;;4994143;28;20045;-83
2022/03/29 08:45:27;;;;;;;42.22;13.73;;;8.10;99.90;;;;;;5007878;28;20444;-82
2022/03/29 08:47:56;;;;;;;32.33;13.13;;;8.10;99.90;;;;;;4993284;28;20041;-82
2022/03/29 08:50:23;;;;;;;36.20;14.77;;;8.10;99.90;;;;;;5009833;28;20053;-82
2022/03/29 08:52:51;;;;;;;37.45;13.27;;;8.20;99.90;;;;;;5008700;28;20072;-82
2022/03/29 08:55:17;;;;;;;30.17;11.90;;;8.60;99.90;;;;;;4973981;28;20058;-82
2022/03/29 08:57:42;;;;;;;29.73;12.60;;;8.30;99.90;;;;;;4978292;28;20504;-82
2022/03/29 09:00:09;;;;;;;31.27;13.38;;;8.40;99.90;;;;;;4999332;28;20052;-84
2022/03/29 09:02:36;;;;;;;29.38;12.32;;;8.40;99.90;;;;;;4999473;28;20038;-84
2022/03/29 09:05:07;;;;;;;28.48;11.82;;;8.70;99.90;;;;;;4989481;28;20061;-85
2022/03/29 09:07:53;;;;;;;28.08;10.35;;;8.50;99.90;;;;;;4976115;28;20065;-85
2022/03/29 09:10:22;;;;;;;32.53;11.05;;;8.50;99.90;;;;;;4989543;28;20054;-84
2022/03/29 09:12:48;;;;;;;30.30;11.05;;;9.40;99.90;;;;;;4990846;28;20050;-83
2022/03/29 09:15:14;;;;;;;29.90;11.07;;;8.60;99.90;;;;;;4988792;28;20045;-83
2022/03/29 09:17:42;;;;;;;31.73;10.65;;;8.70;99.90;;;;;;4973709;28;20059;-83
2022/03/29 09:20:10;;;;;;;31.67;10.80;;;8.70;99.90;;;;;;4973346;28;20042;-82
2022/03/29 09:22:37;;;;;;;27.50;10.77;;;8.80;99.90;;;;;;4973444;28;20041;-83
2022/03/29 09:25:04;;;;;;;41.00;12.40;;;9.60;99.90;;;;;;4990277;28;20584;-83
2022/03/29 09:27:46;;;;;;;32.03;11.60;;;9.00;99.90;;;;;;4989977;28;20060;-84
2022/03/29 09:30:12;;;;;;;35.03;10.25;;;9.90;99.90;;;;;;4972322;28;20080;-83
2022/03/29 09:32:56;;;;;;;29.55;11.30;;;9.20;99.90;;;;;;4974385;28;20049;-84
2022/03/29 09:35:23;;;;;;;25.90;10.52;;;9.60;99.90;;;;;;4973002;28;20052;-83
2022/03/29 09:37:48;;;;;;;32.92;10.32;;;9.40;99.90;;;;;;4973716;28;20567;-82
2022/03/29 09:40:15;;;;;;;31.02;10.38;;;9.70;99.90;;;;;;4989756;28;20053;-82
2022/03/29 09:42:41;;;;;;;33.15;9.90;;;9.50;99.90;;;;;;4973637;28;20067;-81
2022/03/29 09:45:08;;;;;;;29.83;10.13;;;9.60;99.90;;;;;;4989364;28;20057;-82
2022/03/29 09:47:34;;;;;;;28.45;9.85;;;9.70;99.90;;;;;;4974362;28;20425;-82
2022/03/29 09:50:06;;;;;;;32.50;10.80;;;10.00;99.90;;;;;;4988894;28;20127;-82
2022/03/29 09:52:40;;;;;;;34.58;10.68;;;9.80;99.90;;;;;;4973826;28;20050;-82
2022/03/29 09:55:13;;;;;;;34.38;10.82;;;10.10;99.90;;;;;;4989554;28;20048;-82
2022/03/29 09:57:40;;;;;;;;;;;10.20;99.90;;;;;;4973838;28;20524;-82
2022/03/29 10:00:08;;;;;;;30.08;9.88;;;9.80;99.90;;;;;;4989460;28;19925;-82
2022/03/29 10:02:40;;;;;;;29.95;10.18;;;9.90;99.90;;;;;;4973780;28;20081;-83
2022/03/29 10:05:10;;;;;;;24.60;9.25;;;10.00;99.90;;;;;;4972540;28;20053;-83
2022/03/29 10:09:25;;;;;;;34.78;9.93;;;10.10;99.90;;;;;;4989764;28;20135;-82
2022/03/29 10:10:44;;;;;;;22.42;9.23;;;10.10;99.90;;;;;;4987915;28;20042;-83
2022/03/29 10:13:11;;;;;;;24.85;9.82;;;10.00;99.90;;;;;;4989739;28;20054;-82
2022/03/29 10:15:40;;;;;;;24.30;9.00;;;10.10;99.90;;;;;;4989058;28;20061;-82
2022/03/29 10:18:07;;;;;;;27.58;9.20;;;10.40;99.90;;;;;;4989387;28;20188;-82
2022/03/29 10:20:34;;;;;;;35.45;8.88;;;9.90;99.90;;;;;;4973504;28;20052;-82
2022/03/29 10:23:00;;;;;;;29.08;8.15;;;10.20;99.90;;;;;;4989844;28;20054;-82
2022/03/29 10:25:27;;;;;;;27.30;8.70;;;9.80;99.90;;;;;;4972990;28;20042;-82
2022/03/29 10:27:56;;;;;;;29.30;8.75;;;10.40;99.90;;;;;;4973478;28;20046;-82
2022/03/29 10:30:34;;;;;;;21.08;7.50;;;9.80;99.90;;;;;;4990633;28;20494;-82
2022/03/29 10:33:23;;;;;;;29.58;7.80;;;9.80;99.90;;;;;;4976528;28;20089;-82
2022/03/29 10:35:59;;;;;;;20.88;7.03;;;9.90;99.90;;;;;;4976990;28;20038;-82
2022/03/29 10:38:43;;;;;;;24.83;7.97;;;10.20;99.90;;;;;;4992894;28;20065;-82
2022/03/29 10:41:28;;;;;;;30.02;7.70;;;10.30;99.90;;;;;;4976956;28;20045;-82
2022/03/29 10:44:01;;;;;;;26.48;8.20;;;10.50;99.90;;;;;;4976254;28;20141;-86
2022/03/29 10:46:45;;;;;;;26.70;7.85;;;10.60;99.90;;;;;;4989137;28;20045;-86
2022/03/29 10:49:15;;;;;;;19.50;6.53;;;10.80;99.90;;;;;;4988219;28;20429;-86
2022/03/29 10:51:41;;;;;;;19.95;7.75;;;10.90;99.90;;;;;;4989833;28;20049;-86
2022/03/29 10:54:29;;;;;;;25.95;7.68;;;10.80;99.90;;;;;;4985736;28;20042;-85
2022/03/29 10:57:01;;;;;;;36.03;8.30;;;10.60;99.90;;;;;;4996821;28;20053;-86
2022/03/29 10:59:29;;;;;;;19.27;7.03;;;10.80;99.90;;;;;;4984726;28;20052;-85
2022/03/29 11:02:14;;;;;;;24.25;8.20;;;10.80;99.90;;;;;;4992196;28;20049;-84
2022/03/29 11:05:00;;;;;;;21.45;6.90;;;10.90;99.90;;;;;;4986688;28;20053;-85
2022/03/29 11:07:26;;;;;;;24.52;7.72;;;10.90;99.90;;;;;;4983298;28;20096;-85
2022/03/29 11:10:10;;;;;;;24.90;7.65;;;11.30;99.90;;;;;;4992435;28;20072;-85
2022/03/29 11:12:39;;;;;;;31.58;8.48;;;11.30;99.90;;;;;;5000349;28;20053;-85
2022/03/29 11:15:24;;;;;;;26.00;6.65;;;11.30;99.90;;;;;;4985614;28;20111;-85
2022/03/29 11:17:51;;;;;;;25.20;7.40;;;11.20;99.90;;;;;;5004062;28;20045;-85
2022/03/29 11:20:34;;;;;;;23.52;7.10;;;11.00;99.90;;;;;;4980862;28;20045;-85
2022/03/29 11:23:04;;;;;;;19.73;7.18;;;10.90;99.90;;;;;;4996448;28;20532;-85
2022/03/29 11:25:37;;;;;;;22.27;7.75;;;10.70;99.90;;;;;;4989989;28;20437;-85
2022/03/29 11:28:06;;;;;;;31.25;8.32;;;10.50;99.90;;;;;;4986981;28;20045;-86
2022/03/29 11:30:34;;;;;;;24.15;8.52;;;10.30;99.90;;;;;;4992334;28;20073;-86
2022/03/29 11:33:01;;;;;;;23.10;8.73;;;10.20;99.90;;;;;;4980650;28;20083;-86
2022/03/29 11:35:27;;;;;;;28.02;8.15;;;10.40;99.90;;;;;;4984339;28;20053;-86
2022/03/29 11:37:53;;;;;;;23.90;7.97;;;10.00;99.90;;;;;;4979698;28;20050;-85
2022/03/29 11:40:20;;;;;;;30.20;8.60;;;10.20;99.90;;;;;;4993379;28;20112;-86
2022/03/29 11:42:49;;;;;;;28.30;8.50;;;10.00;99.90;;;;;;4979004;28;20050;-86
2022/03/29 11:45:18;;;;;;;22.75;8.48;;;10.20;99.90;;;;;;4986742;28;20371;-86
2022/03/29 11:47:53;;;;;;;25.77;7.55;;;10.20;99.90;;;;;;5000446;28;20076;-87
2022/03/29 11:50:35;;;;;;;30.83;7.95;;;10.40;99.90;;;;;;4976332;28;20115;-86
2022/03/29 11:53:01;;;;;;;25.55;8.52;;;10.20;99.90;;;;;;5003693;28;20107;-86
2022/03/29 11:55:27;;;;;;;23.75;7.38;;;10.50;99.90;;;;;;4995496;28;20045;-85
2022/03/29 11:57:53;;;;;;;27.33;8.65;;;10.00;99.90;;;;;;5004352;28;20049;-85
2022/03/29 12:00:24;;;;;;;29.42;8.07;;;10.00;99.90;;;;;;5008299;28;20041;-85
2022/03/29 12:02:50;;;;;;;26.90;8.85;;;9.90;99.90;;;;;;4982308;28;20049;-84
2022/03/29 12:05:25;;;;;;;28.00;8.60;;;9.90;99.90;;;;;;4991832;28;20129;-86
2022/03/29 12:08:02;;;;;;;26.25;8.25;;;9.90;99.90;;;;;;5000177;28;20119;-85
2022/03/29 12:10:29;;;;;;;23.67;8.05;;;10.00;99.90;;;;;;4996442;28;20112;-86
2022/03/29 12:12:55;;;;;;;38.65;8.52;;;10.00;99.90;;;;;;4992393;28;20088;-86
2022/03/29 12:15:22;;;;;;;27.23;8.90;;;10.50;99.90;;;;;;4990500;28;20076;-86
2022/03/29 12:18:40;;;;;;;22.35;7.15;;;10.20;99.90;;;;;;5003758;28;20042;-86
2022/03/29 12:20:39;;;;;;;25.42;8.50;;;10.20;99.90;;;;;;5011295;28;20045;-86
2022/03/29 12:23:17;;;;;;;33.05;9.57;;;10.20;99.90;;;;;;4984206;28;20081;-87
2022/03/29 12:25:44;;;;;;;33.70;8.73;;;10.40;99.90;;;;;;5002770;28;20037;-87
2022/03/29 12:28:11;;;;;;;22.65;8.77;;;10.50;99.90;;;;;;4999186;28;20046;-87
2022/03/29 12:30:37;;;;;;;33.63;9.55;;;10.60;99.90;;;;;;5012306;28;20045;-85
2022/03/29 12:33:03;;;;;;;26.27;9.27;;;10.60;99.90;;;;;;5001657;28;20050;-88
2022/03/29 12:35:30;;;;;;;27.30;9.70;;;10.60;99.90;;;;;;4976160;28;20112;-86
2022/03/29 12:38:05;;;;;;;33.42;11.15;;;10.50;99.90;;;;;;4977953;28;20045;-86
2022/03/29 12:40:31;;;;;;;29.20;11.25;;;10.50;99.90;;;;;;4996597;28;20458;-86
2022/03/29 12:43:05;;;;;;;28.20;11.15;;;10.50;99.90;;;;;;5006967;28;20488;-85
2022/03/29 12:45:32;;;;;;;24.70;10.60;;;10.50;99.90;;;;;;5003091;28;20045;-86
2022/03/29 12:47:59;;;;;;;25.88;10.05;;;10.60;99.90;;;;;;4982491;28;20057;-86
2022/03/29 12:50:25;;;;;;;27.08;9.70;;;10.30;99.90;;;;;;4991271;28;20037;-86